createdAt,value
2018-06-25T00:00:11.723Z,1.53
2018-06-25T00:02:40.697Z,1.67
2018-06-25T00:05:09.447Z,1.60
2018-06-25T00:07:38.216Z,1.30
2018-06-25T00:10:06.827Z,1.50
2018-06-25T00:12:35.614Z,1.33
2018-06-25T00:15:04.816Z,1.43
2018-06-25T00:17:33.701Z,1.50
2018-06-25T00:20:02.591Z,1.33
2018-06-25T00:22:31.272Z,1.57
2018-06-25T00:24:59.705Z,1.37
2018-06-25T00:27:28.339Z,1.47
2018-06-25T00:29:56.999Z,1.50
2018-06-25T00:32:25.541Z,1.60
2018-06-25T00:34:53.935Z,1.10
2018-06-25T00:37:22.648Z,1.30
2018-06-25T00:39:51.368Z,1.50
2018-06-25T00:42:20.088Z,1.53
2018-06-25T00:44:48.803Z,1.30
2018-06-25T00:47:17.387Z,1.40
2018-06-25T00:49:46.003Z,1.40
2018-06-25T00:52:14.653Z,1.40
2018-06-25T00:54:43.597Z,1.83
2018-06-25T00:57:12.127Z,1.40
2018-06-25T00:59:45.977Z,1.43
2018-06-25T01:02:14.587Z,1.90
2018-06-25T01:04:43.250Z,1.27
2018-06-25T01:07:12.042Z,1.20
2018-06-25T01:09:40.671Z,1.23
2018-06-25T01:12:09.619Z,1.40
2018-06-25T01:14:38.505Z,1.27
2018-06-25T01:17:08.001Z,1.40
2018-06-25T01:19:36.935Z,1.20
2018-06-25T01:22:05.645Z,1.40
2018-06-25T01:24:34.240Z,1.37
2018-06-25T01:27:02.848Z,1.77
2018-06-25T01:29:31.595Z,1.57
2018-06-25T01:32:00.081Z,1.20
2018-06-25T01:34:28.592Z,1.10
2018-06-25T01:36:57.212Z,1.20
2018-06-25T01:39:26.033Z,1.30
2018-06-25T01:41:54.659Z,1.50
2018-06-25T01:44:23.499Z,1.37
2018-06-25T01:46:52.229Z,1.20
2018-06-25T01:49:21.234Z,1.33
2018-06-25T01:51:50.139Z,1.07
2018-06-25T01:54:18.855Z,1.23
2018-06-25T01:56:47.740Z,1.10
2018-06-25T01:59:16.431Z,1.00
2018-06-25T02:01:45.188Z,1.10
2018-06-25T02:04:13.725Z,1.30
2018-06-25T02:06:42.634Z,1.10
2018-06-25T02:09:12.454Z,1.00
2018-06-25T02:11:41.092Z,1.40
2018-06-25T02:14:09.698Z,1.17
2018-06-25T02:16:45.166Z,1.30
2018-06-25T02:19:14.019Z,0.83
2018-06-25T02:21:42.851Z,1.03
2018-06-25T02:24:11.812Z,1.30
2018-06-25T02:26:40.635Z,1.20
2018-06-25T02:29:09.487Z,1.20
2018-06-25T02:31:38.617Z,1.13
2018-06-25T02:34:37.645Z,1.07
2018-06-25T02:37:32.443Z,1.23
2018-06-25T02:40:00.847Z,0.87
2018-06-25T02:42:29.341Z,1.00
2018-06-25T02:44:57.960Z,1.37
2018-06-25T02:47:26.546Z,1.17
2018-06-25T02:49:55.267Z,0.87
2018-06-25T02:52:24.284Z,0.97
2018-06-25T02:54:52.959Z,0.90
2018-06-25T02:57:21.932Z,1.20
2018-06-25T02:59:50.157Z,1.20
2018-06-25T03:02:18.589Z,0.83
2018-06-25T03:04:47.173Z,1.03
2018-06-25T03:07:15.961Z,1.13
2018-06-25T03:09:44.490Z,1.37
2018-06-25T03:12:13.001Z,1.47
2018-06-25T03:14:41.607Z,0.93
2018-06-25T03:17:10.090Z,1.00
2018-06-25T03:19:38.951Z,0.93
2018-06-25T03:22:07.892Z,1.00
2018-06-25T03:24:36.658Z,0.90
2018-06-25T03:27:05.168Z,1.10
2018-06-25T03:29:33.840Z,1.10
2018-06-25T03:32:02.596Z,1.20
2018-06-25T03:34:37.946Z,1.03
2018-06-25T03:37:06.602Z,0.97
2018-06-25T03:39:35.316Z,1.50
2018-06-25T03:42:03.953Z,1.53
2018-06-25T03:44:32.383Z,1.07
2018-06-25T03:47:01.068Z,1.17
2018-06-25T03:49:29.656Z,1.00
2018-06-25T03:51:58.389Z,1.13
2018-06-25T03:54:27.778Z,1.30
2018-06-25T03:56:56.406Z,1.47
2018-06-25T03:59:25.103Z,1.20
2018-06-25T04:01:53.915Z,1.00
2018-06-25T04:04:27.241Z,1.67
2018-06-25T04:06:57.495Z,1.50
2018-06-25T04:09:26.699Z,1.70
2018-06-25T04:11:55.805Z,2.00
2018-06-25T04:14:24.574Z,1.60
2018-06-25T04:16:53.526Z,2.03
2018-06-25T04:19:21.962Z,2.40
2018-06-25T04:21:50.505Z,2.17
2018-06-25T04:24:19.111Z,2.03
2018-06-25T04:26:47.710Z,2.77
2018-06-25T04:29:16.525Z,2.57
2018-06-25T04:31:44.928Z,3.27
2018-06-25T04:34:13.664Z,3.23
2018-06-25T04:36:42.176Z,2.67
2018-06-25T04:39:11.492Z,2.53
2018-06-25T04:41:40.026Z,2.27
2018-06-25T04:44:08.618Z,3.60
2018-06-25T04:46:37.198Z,2.73
2018-06-25T04:49:05.974Z,2.62
2018-06-25T04:51:34.668Z,2.03
2018-06-25T04:54:03.359Z,2.07
2018-06-25T04:56:31.935Z,2.00
2018-06-25T04:59:00.639Z,2.10
2018-06-25T05:01:29.104Z,2.40
2018-06-25T05:03:57.490Z,2.43
2018-06-25T05:06:25.912Z,2.50
2018-06-25T05:08:54.406Z,2.43
2018-06-25T05:11:23.332Z,3.63
2018-06-25T05:13:51.813Z,5.00
2018-06-25T05:16:20.295Z,3.17
2018-06-25T05:18:48.891Z,2.93
2018-06-25T05:21:17.455Z,2.53
2018-06-25T05:23:45.891Z,2.50
2018-06-25T05:26:14.431Z,1.83
2018-06-25T05:28:42.900Z,2.10
2018-06-25T05:31:11.690Z,2.10
2018-06-25T05:33:40.064Z,1.70
2018-06-25T05:36:08.454Z,1.70
2018-06-25T05:38:36.834Z,1.83
2018-06-25T05:41:05.302Z,2.00
2018-06-25T05:43:33.882Z,1.87
2018-06-25T05:46:02.466Z,1.70
2018-06-25T05:48:30.876Z,1.80
2018-06-25T05:50:59.429Z,1.30
2018-06-25T05:53:27.908Z,0.90
2018-06-25T05:55:56.393Z,1.30
2018-06-25T05:58:24.973Z,1.60
2018-06-25T06:00:53.554Z,1.17
2018-06-25T06:03:22.343Z,1.40
2018-06-25T06:05:50.840Z,1.63
2018-06-25T06:08:19.405Z,1.40
2018-06-25T06:10:47.989Z,1.00
2018-06-25T06:13:16.573Z,1.20
2018-06-25T06:15:45.153Z,1.23
2018-06-25T06:18:13.843Z,1.53
2018-06-25T06:20:42.420Z,1.60
2018-06-25T06:23:11.003Z,1.70
2018-06-25T06:25:39.603Z,1.60
2018-06-25T06:28:08.170Z,1.63
2018-06-25T06:30:36.754Z,1.47
2018-06-25T06:33:05.226Z,1.10
2018-06-25T06:35:33.643Z,1.63
2018-06-25T06:38:02.194Z,1.27
2018-06-25T06:40:30.678Z,1.17
2018-06-25T06:42:59.040Z,1.57
2018-06-25T06:45:29.597Z,1.07
2018-06-25T06:47:58.265Z,1.00
2018-06-25T06:50:26.577Z,1.47
2018-06-25T06:52:55.030Z,1.50
2018-06-25T06:55:23.609Z,1.57
2018-06-25T06:57:52.218Z,1.27
2018-06-25T07:00:20.673Z,1.67
2018-06-25T07:02:49.253Z,1.60
2018-06-25T07:05:17.837Z,1.97
2018-06-25T07:07:46.225Z,1.80
2018-06-25T07:10:14.845Z,2.60
2018-06-25T07:12:43.484Z,1.40
2018-06-25T07:15:12.069Z,1.63
2018-06-25T07:17:41.501Z,1.70
2018-06-25T07:20:09.949Z,2.00
2018-06-25T07:22:38.550Z,2.10
2018-06-25T07:25:07.113Z,2.00
2018-06-25T07:27:36.104Z,2.90
2018-06-25T07:30:04.996Z,2.27
2018-06-25T07:32:33.373Z,2.00
2018-06-25T07:35:01.956Z,2.23
2018-06-25T07:37:30.543Z,1.83
2018-06-25T07:39:59.024Z,0.97
2018-06-25T07:42:27.775Z,2.07
2018-06-25T07:44:56.083Z,3.30
2018-06-25T07:47:24.563Z,1.80
2018-06-25T07:49:52.946Z,1.40
2018-06-25T07:52:21.627Z,1.53
2018-06-25T07:54:50.210Z,1.20
2018-06-25T07:57:18.685Z,1.47
2018-06-25T07:59:47.273Z,1.20
2018-06-25T08:02:15.855Z,1.17
2018-06-25T08:04:44.435Z,1.30
2018-06-25T08:07:12.919Z,1.40
2018-06-25T08:09:41.400Z,2.40
2018-06-25T08:12:09.885Z,2.23
2018-06-25T08:14:38.467Z,1.97
2018-06-25T08:17:06.942Z,1.27
2018-06-25T08:19:35.531Z,1.27
2018-06-25T08:22:04.212Z,1.30
2018-06-25T08:24:32.812Z,1.37
2018-06-25T08:27:01.383Z,1.30
2018-06-25T08:29:29.858Z,1.30
2018-06-25T08:31:58.441Z,1.23
2018-06-25T08:34:27.163Z,1.20
2018-06-25T08:36:55.513Z,1.90
2018-06-25T08:39:23.983Z,1.20
2018-06-25T08:41:52.572Z,2.13
2018-06-25T08:44:21.157Z,1.40
2018-06-25T08:46:49.633Z,1.10
2018-06-25T08:49:18.112Z,1.37
2018-06-25T08:51:46.804Z,1.47
2018-06-25T08:54:15.387Z,1.70
2018-06-25T08:56:43.758Z,1.30
2018-06-25T08:59:12.346Z,1.80
2018-06-25T09:01:40.926Z,1.77
2018-06-25T09:04:09.502Z,1.73
2018-06-25T09:06:37.990Z,1.60
2018-06-25T09:09:08.003Z,1.27
2018-06-25T09:11:36.495Z,1.20
2018-06-25T09:14:05.067Z,2.23
2018-06-25T09:16:33.658Z,1.83
2018-06-25T09:19:02.138Z,1.33
2018-06-25T09:21:30.627Z,1.60
2018-06-25T09:23:59.196Z,1.20
2018-06-25T09:26:27.580Z,1.60
2018-06-25T09:28:56.156Z,1.33
2018-06-25T09:31:24.774Z,1.13
2018-06-25T09:33:53.543Z,1.30
2018-06-25T09:36:22.313Z,1.43
2018-06-25T09:38:50.834Z,1.50
2018-06-25T09:41:19.403Z,1.40
2018-06-25T09:43:47.962Z,1.70
2018-06-25T09:46:16.849Z,1.10
2018-06-25T09:48:45.275Z,1.30
2018-06-25T09:51:13.711Z,1.30
2018-06-25T09:53:42.293Z,1.23
2018-06-25T09:56:10.874Z,1.10
2018-06-25T09:58:39.353Z,1.30
2018-06-25T10:01:10.089Z,1.40
2018-06-25T10:03:38.772Z,1.30
2018-06-25T10:06:07.257Z,1.37
2018-06-25T10:08:35.732Z,1.17
2018-06-25T10:11:04.420Z,1.60
2018-06-25T10:13:33.007Z,1.50
2018-06-25T10:16:01.697Z,1.50
2018-06-25T10:18:30.176Z,1.93
2018-06-25T10:20:58.654Z,1.80
2018-06-25T10:23:27.238Z,1.53
2018-06-25T10:25:55.814Z,1.30
2018-06-25T10:28:24.443Z,1.40
2018-06-25T10:30:52.882Z,1.00
2018-06-25T10:33:21.463Z,1.50
2018-06-25T10:35:50.045Z,1.60
2018-06-25T10:38:18.627Z,1.57
2018-06-25T10:40:47.213Z,1.80
2018-06-25T10:43:15.588Z,1.97
2018-06-25T10:45:44.273Z,1.83
2018-06-25T10:48:12.753Z,1.47
2018-06-25T10:50:41.336Z,1.20
2018-06-25T10:53:09.919Z,1.60
2018-06-25T10:55:39.961Z,1.03
2018-06-25T10:58:08.483Z,1.53
2018-06-25T11:00:36.703Z,1.70
2018-06-25T11:03:05.384Z,2.47
2018-06-25T11:05:33.956Z,1.93
2018-06-25T11:08:02.367Z,2.50
2018-06-25T11:10:30.662Z,2.20
2018-06-25T11:12:59.216Z,2.33
2018-06-25T11:15:27.578Z,2.20
2018-06-25T11:17:56.056Z,2.40
2018-06-25T11:20:24.639Z,2.40
2018-06-25T11:22:53.126Z,2.60
2018-06-25T11:25:21.697Z,1.90
2018-06-25T11:27:50.328Z,2.07
2018-06-25T11:30:18.778Z,2.17
2018-06-25T11:32:47.244Z,2.72
2018-06-25T11:35:15.745Z,2.40
2018-06-25T11:37:44.355Z,1.83
2018-06-25T11:40:13.301Z,2.17
2018-06-25T11:42:41.781Z,2.27
2018-06-25T11:45:10.092Z,1.73
2018-06-25T11:47:38.845Z,2.00
2018-06-25T11:50:07.331Z,2.67
2018-06-25T11:52:35.808Z,1.60
2018-06-25T11:55:04.390Z,2.07
2018-06-25T11:57:32.979Z,1.83
2018-06-25T12:00:01.494Z,1.93
2018-06-25T12:02:29.970Z,2.07
2018-06-25T12:04:58.417Z,1.80
2018-06-25T12:07:26.931Z,1.90
2018-06-25T12:09:56.521Z,1.90
2018-06-25T12:12:29.193Z,1.90
2018-06-25T12:14:57.866Z,1.70
2018-06-25T12:17:26.389Z,1.93
2018-06-25T12:19:55.017Z,1.90
2018-06-25T12:22:23.511Z,1.83
2018-06-25T12:24:52.001Z,1.87
2018-06-25T12:27:20.579Z,2.20
2018-06-25T12:29:49.161Z,2.00
2018-06-25T12:32:17.650Z,2.30
2018-06-25T12:34:46.221Z,2.63
2018-06-25T12:37:15.111Z,2.50
2018-06-25T12:39:43.699Z,2.50
2018-06-25T12:42:12.382Z,1.77
2018-06-25T12:44:41.070Z,1.80
2018-06-25T12:47:10.015Z,2.20
2018-06-25T12:49:38.431Z,2.60
2018-06-25T12:52:06.832Z,3.10
2018-06-25T12:54:35.605Z,2.00
2018-06-25T12:57:04.418Z,2.10
2018-06-25T12:59:32.769Z,1.90
2018-06-25T13:02:01.354Z,2.07
2018-06-25T13:04:29.939Z,2.43
2018-06-25T13:06:59.651Z,2.30
2018-06-25T13:09:27.918Z,2.50
2018-06-25T13:11:56.295Z,2.67
2018-06-25T13:14:24.880Z,2.13
2018-06-25T13:16:53.362Z,2.53
2018-06-25T13:19:21.942Z,2.20
2018-06-25T13:21:50.423Z,2.07
2018-06-25T13:24:18.906Z,2.67
2018-06-25T13:26:47.490Z,2.50
2018-06-25T13:29:16.069Z,3.23
2018-06-25T13:31:44.654Z,2.83
2018-06-25T13:34:13.234Z,2.50
2018-06-25T13:36:41.713Z,2.50
2018-06-25T13:39:10.605Z,2.90
2018-06-25T13:41:39.191Z,2.37
2018-06-25T13:44:07.567Z,2.50
2018-06-25T13:46:35.970Z,2.77
2018-06-25T13:49:04.479Z,2.67
2018-06-25T13:51:32.913Z,2.70
2018-06-25T13:54:01.316Z,2.63
2018-06-25T13:56:29.679Z,2.10
2018-06-25T13:58:58.245Z,2.37
2018-06-25T14:01:26.726Z,2.63
2018-06-25T14:03:55.307Z,2.30
2018-06-25T14:06:23.710Z,2.30
2018-06-25T14:08:52.176Z,2.50
2018-06-25T14:11:20.670Z,2.63
2018-06-25T14:13:49.131Z,2.60
2018-06-25T14:16:17.778Z,2.47
2018-06-25T14:18:46.400Z,2.83
2018-06-25T14:21:14.986Z,2.63
2018-06-25T14:23:48.891Z,2.60
2018-06-25T14:26:17.266Z,2.50
2018-06-25T14:28:45.670Z,2.53
2018-06-25T14:31:19.656Z,2.90
2018-06-25T14:33:53.563Z,2.30
2018-06-25T14:36:21.972Z,2.67
2018-06-25T14:38:50.458Z,2.70
2018-06-25T14:41:19.007Z,2.70
2018-06-25T14:43:47.688Z,2.00
2018-06-25T14:46:16.175Z,2.87
2018-06-25T14:48:44.983Z,3.00
2018-06-25T14:51:13.539Z,2.30
2018-06-25T14:53:42.618Z,2.10
2018-06-25T14:56:12.060Z,3.13
2018-06-25T14:58:40.519Z,2.60
2018-06-25T15:01:08.808Z,2.57
2018-06-25T15:03:37.269Z,2.13
2018-06-25T15:06:05.982Z,3.27
2018-06-25T15:08:34.437Z,2.27
2018-06-25T15:11:02.907Z,2.50
2018-06-25T15:13:31.298Z,3.33
2018-06-25T15:16:00.081Z,3.27
2018-06-25T15:18:28.566Z,2.73
2018-06-25T15:20:57.052Z,7.47
2018-06-25T15:23:25.731Z,3.10
2018-06-25T15:25:54.216Z,2.63
2018-06-25T15:28:22.795Z,3.00
2018-06-25T15:30:51.274Z,3.07
2018-06-25T15:33:19.864Z,2.83
2018-06-25T15:35:48.462Z,2.53
2018-06-25T15:38:17.024Z,3.37
2018-06-25T15:40:45.609Z,2.53
2018-06-25T15:43:14.189Z,3.27
2018-06-25T15:45:42.773Z,2.67
2018-06-25T15:48:11.355Z,2.80
2018-06-25T15:50:39.958Z,2.07
2018-06-25T15:53:08.626Z,2.07
2018-06-25T15:55:36.872Z,2.17
2018-06-25T15:58:05.174Z,2.50
2018-06-25T16:00:34.169Z,2.87
2018-06-25T16:03:02.653Z,4.07
2018-06-25T16:05:31.038Z,3.27
2018-06-25T16:07:59.712Z,3.20
2018-06-25T16:10:28.094Z,2.50
2018-06-25T16:12:56.516Z,3.07
2018-06-25T16:15:25.051Z,2.37
2018-06-25T16:17:53.634Z,2.60
2018-06-25T16:20:22.219Z,2.43
2018-06-25T16:22:50.719Z,2.33
2018-06-25T16:25:19.234Z,2.40
2018-06-25T16:27:47.662Z,2.37
2018-06-25T16:30:16.131Z,2.40
2018-06-25T16:32:44.725Z,2.47
2018-06-25T16:35:13.202Z,2.50
2018-06-25T16:37:41.785Z,2.33
2018-06-25T16:40:10.376Z,2.07
2018-06-25T16:42:38.852Z,2.70
2018-06-25T16:45:07.226Z,2.77
2018-06-25T16:47:35.811Z,2.37
2018-06-25T16:50:04.721Z,1.70
2018-06-25T16:52:33.295Z,2.17
2018-06-25T16:55:01.867Z,2.90
2018-06-25T16:57:30.449Z,2.10
2018-06-25T16:59:58.928Z,2.23
2018-06-25T17:02:27.579Z,1.93
2018-06-25T17:04:56.119Z,2.50
2018-06-25T17:07:24.676Z,2.20
2018-06-25T17:09:53.157Z,2.40
2018-06-25T17:12:21.542Z,2.30
2018-06-25T17:14:49.756Z,2.30
2018-06-25T17:17:18.087Z,2.00
2018-06-25T17:19:46.567Z,1.90
2018-06-25T17:22:15.152Z,2.10
2018-06-25T17:24:43.561Z,2.33
2018-06-25T17:27:12.114Z,2.20
2018-06-25T17:29:40.660Z,2.70
2018-06-25T17:32:09.281Z,2.80
2018-06-25T17:34:37.552Z,2.30
2018-06-25T17:37:06.043Z,3.00
2018-06-25T17:39:34.435Z,2.87
2018-06-25T17:42:02.777Z,2.27
2018-06-25T17:44:31.576Z,2.40
2018-06-25T17:47:00.159Z,2.30
2018-06-25T17:49:28.543Z,2.40
2018-06-25T17:51:56.871Z,2.40
2018-06-25T17:54:25.811Z,2.27
2018-06-25T17:56:54.394Z,2.67
2018-06-25T17:59:22.788Z,2.13
2018-06-25T18:01:51.453Z,2.20
2018-06-25T18:04:20.141Z,2.13
2018-06-25T18:06:48.823Z,2.43
2018-06-25T18:09:17.407Z,2.23
2018-06-25T18:11:45.811Z,2.10
2018-06-25T18:14:14.362Z,2.57
2018-06-25T18:16:42.950Z,2.00
2018-06-25T18:19:11.433Z,2.20
2018-06-25T18:21:39.928Z,2.40
2018-06-25T18:24:08.505Z,2.30
2018-06-25T18:26:37.076Z,2.23
2018-06-25T18:29:05.459Z,2.50
2018-06-25T18:31:34.352Z,2.30
2018-06-25T18:34:02.723Z,2.53
2018-06-25T18:36:31.206Z,2.57
2018-06-25T18:38:59.706Z,2.43
2018-06-25T18:41:28.165Z,2.57
2018-06-25T18:43:56.646Z,2.30
2018-06-25T18:46:25.436Z,2.50
2018-06-25T18:48:53.918Z,2.77
2018-06-25T18:51:22.403Z,2.50
2018-06-25T18:53:50.874Z,2.30
2018-06-25T18:56:19.458Z,2.37
2018-06-25T18:58:47.939Z,2.50
2018-06-25T19:01:16.420Z,2.43
2018-06-25T19:03:44.908Z,2.70
2018-06-25T19:06:13.278Z,2.50
2018-06-25T19:08:41.693Z,2.30
2018-06-25T19:11:10.653Z,2.33
2018-06-25T19:13:38.934Z,2.40
2018-06-25T19:16:07.234Z,2.90
2018-06-25T19:18:35.682Z,2.73
2018-06-25T19:21:04.264Z,3.47
2018-06-25T19:23:32.721Z,3.53
2018-06-25T19:26:01.224Z,2.43
2018-06-25T19:28:29.714Z,2.90
2018-06-25T19:30:58.291Z,2.50
2018-06-25T19:33:26.883Z,2.13
2018-06-25T19:35:55.360Z,2.40
2018-06-25T19:38:23.938Z,2.00
2018-06-25T19:40:52.929Z,2.37
2018-06-25T19:43:21.334Z,2.10
2018-06-25T19:45:50.095Z,2.17
2018-06-25T19:48:18.573Z,2.10
2018-06-25T19:50:47.048Z,3.70
2018-06-25T19:53:15.634Z,4.40
2018-06-25T19:55:44.020Z,3.00
2018-06-25T19:58:12.613Z,2.40
2018-06-25T20:00:41.096Z,2.80
2018-06-25T20:03:09.663Z,2.53
2018-06-25T20:05:38.143Z,2.80
2018-06-25T20:08:06.625Z,2.80
2018-06-25T20:10:35.208Z,2.37
2018-06-25T20:13:03.582Z,2.70
2018-06-25T20:15:32.204Z,2.70
2018-06-25T20:18:00.655Z,2.53
2018-06-25T20:20:29.239Z,2.40
2018-06-25T20:22:57.811Z,2.47
2018-06-25T20:25:26.299Z,2.77
2018-06-25T20:27:54.877Z,2.80
2018-06-25T20:30:23.458Z,2.33
2018-06-25T20:32:51.938Z,2.60
2018-06-25T20:35:20.523Z,2.60
2018-06-25T20:37:49.209Z,2.90
2018-06-25T20:40:17.698Z,2.20
2018-06-25T20:42:46.271Z,2.60
2018-06-25T20:45:14.858Z,2.60
2018-06-25T20:47:43.438Z,2.50
2018-06-25T20:50:11.897Z,2.40
2018-06-25T20:52:40.500Z,2.63
2018-06-25T20:55:09.083Z,2.73
2018-06-25T20:57:37.624Z,2.70
2018-06-25T21:00:06.147Z,2.50
2018-06-25T21:02:34.831Z,2.60
2018-06-25T21:05:03.210Z,2.50
2018-06-25T21:07:38.246Z,2.80
2018-06-25T21:10:06.708Z,2.60
2018-06-25T21:12:35.308Z,2.70
2018-06-25T21:15:03.995Z,3.40
2018-06-25T21:17:32.482Z,3.57
2018-06-25T21:20:01.159Z,2.70
2018-06-25T21:22:29.740Z,2.67
2018-06-25T21:24:58.177Z,2.40
2018-06-25T21:27:26.705Z,2.50
2018-06-25T21:29:55.290Z,2.90
2018-06-25T21:32:23.872Z,2.43
2018-06-25T21:34:52.356Z,2.33
2018-06-25T21:37:20.728Z,2.27
2018-06-25T21:39:49.159Z,2.57
2018-06-25T21:42:17.691Z,2.73
2018-06-25T21:44:46.268Z,2.47
2018-06-25T21:47:14.791Z,2.90
2018-06-25T21:49:43.565Z,2.70
2018-06-25T21:52:12.152Z,2.80
2018-06-25T21:54:40.734Z,2.47
2018-06-25T21:57:09.432Z,2.33
2018-06-25T21:59:37.889Z,2.63
2018-06-25T22:02:06.396Z,2.53
2018-06-25T22:04:34.852Z,2.70
2018-06-25T22:07:03.434Z,2.23
2018-06-25T22:09:32.146Z,2.60
2018-06-25T22:12:00.932Z,2.23
2018-06-25T22:14:30.023Z,2.50
2018-06-25T22:16:58.875Z,2.23
2018-06-25T22:19:27.653Z,2.43
2018-06-25T22:21:56.577Z,2.60
2018-06-25T22:24:25.463Z,2.80
2018-06-25T22:26:54.367Z,2.63
2018-06-25T22:29:23.152Z,2.53
2018-06-25T22:31:52.425Z,2.67
2018-06-25T22:34:21.625Z,2.50
2018-06-25T22:36:50.615Z,2.33
2018-06-25T22:39:19.942Z,2.60
2018-06-25T22:41:49.249Z,2.53
2018-06-25T22:44:18.141Z,2.73
2018-06-25T22:46:47.264Z,2.50
2018-06-25T22:49:16.425Z,2.57
2018-06-25T22:51:45.181Z,3.23
2018-06-25T22:54:14.009Z,2.63
2018-06-25T22:56:43.081Z,3.40
2018-06-25T22:59:11.940Z,3.20
2018-06-25T23:01:40.647Z,3.63
2018-06-25T23:04:09.681Z,3.10
2018-06-25T23:06:38.622Z,2.97
2018-06-25T23:09:08.789Z,2.80
2018-06-25T23:11:38.037Z,2.73
2018-06-25T23:14:07.081Z,2.70
2018-06-25T23:16:35.958Z,2.70
2018-06-25T23:19:04.743Z,2.60
2018-06-25T23:21:33.405Z,2.63
2018-06-25T23:24:02.330Z,2.40
2018-06-25T23:26:32.348Z,2.60
2018-06-25T23:29:00.995Z,2.47
2018-06-25T23:31:29.572Z,2.53
2018-06-25T23:33:58.090Z,2.50
2018-06-25T23:36:26.789Z,2.60
2018-06-25T23:38:55.425Z,2.33
2018-06-25T23:41:23.932Z,2.40
2018-06-25T23:43:52.347Z,2.63
2018-06-25T23:46:20.904Z,2.50
2018-06-25T23:48:49.585Z,2.10
2018-06-25T23:51:18.129Z,2.30
2018-06-25T23:53:46.594Z,2.17
2018-06-25T23:56:15.256Z,2.40
2018-06-25T23:58:43.861Z,2.20
